createdAt,value
2019-03-21T00:00:37.043Z,25.40
2019-03-21T00:03:05.017Z,18.15
2019-03-21T00:05:33.675Z,18.12
2019-03-21T00:08:01.748Z,17.62
2019-03-21T00:10:31.342Z,30.12
2019-03-21T00:12:59.324Z,19.35
2019-03-21T00:15:31.867Z,23.87
2019-03-21T00:18:02.343Z,20.75
2019-03-21T00:20:30.300Z,31.10
2019-03-21T00:22:58.280Z,17.87
2019-03-21T00:25:26.245Z,18.82
2019-03-21T00:27:54.216Z,22.52
2019-03-21T00:30:23.276Z,24.75
2019-03-21T00:32:51.715Z,20.90
2019-03-21T00:35:19.683Z,26.50
2019-03-21T00:37:48.139Z,20.10
2019-03-21T00:40:17.771Z,17.60
2019-03-21T00:42:46.416Z,24.98
2019-03-21T00:45:15.672Z,19.57
2019-03-21T00:47:44.303Z,19.55
2019-03-21T00:50:19.603Z,25.92
2019-03-21T00:52:48.839Z,17.55
2019-03-21T00:55:16.816Z,18.67
2019-03-21T00:57:44.779Z,22.87
2019-03-21T01:00:17.388Z,25.05
2019-03-21T01:02:45.387Z,22.20
2019-03-21T01:05:13.377Z,26.82
2019-03-21T01:07:41.351Z,18.82
2019-03-21T01:10:16.983Z,23.22
2019-03-21T01:12:44.955Z,20.85
2019-03-21T01:15:12.923Z,16.90
2019-03-21T01:17:40.890Z,20.08
2019-03-21T01:20:13.091Z,20.32
2019-03-21T01:22:41.060Z,20.45
2019-03-21T01:25:10.656Z,22.73
2019-03-21T01:27:38.638Z,22.48
2019-03-21T01:30:10.898Z,27.40
2019-03-21T01:32:38.868Z,21.85
2019-03-21T01:35:07.425Z,24.55
2019-03-21T01:37:35.383Z,28.00
2019-03-21T01:40:05.036Z,25.52
2019-03-21T01:42:33.009Z,25.15
2019-03-21T01:45:01.026Z,22.67
2019-03-21T01:47:29.051Z,23.47
2019-03-21T01:49:57.020Z,28.87
2019-03-21T01:52:25.000Z,21.07
2019-03-21T01:54:52.959Z,18.70
2019-03-21T01:57:20.940Z,21.90
2019-03-21T01:59:48.903Z,20.10
2019-03-21T02:02:16.883Z,20.77
2019-03-21T02:04:44.851Z,22.27
2019-03-21T02:07:12.824Z,28.00
2019-03-21T02:09:40.795Z,23.77
2019-03-21T02:12:08.783Z,23.10
2019-03-21T02:14:36.759Z,20.20
2019-03-21T02:17:04.733Z,27.80
2019-03-21T02:19:32.713Z,17.57
2019-03-21T02:22:00.673Z,24.30
2019-03-21T02:24:28.667Z,18.87
2019-03-21T02:26:56.644Z,15.85
2019-03-21T02:29:24.624Z,17.92
2019-03-21T02:31:52.599Z,21.02
2019-03-21T02:34:20.571Z,18.52
2019-03-21T02:36:48.542Z,24.27
2019-03-21T02:39:16.509Z,26.52
2019-03-21T02:41:44.488Z,28.55
2019-03-21T02:44:12.444Z,19.95
2019-03-21T02:46:40.456Z,20.15
2019-03-21T02:49:08.416Z,21.57
2019-03-21T02:51:36.406Z,24.20
2019-03-21T02:54:04.381Z,17.37
2019-03-21T02:56:32.349Z,21.85
2019-03-21T02:59:00.324Z,26.30
2019-03-21T03:01:28.297Z,24.85
2019-03-21T03:03:56.284Z,29.27
2019-03-21T03:06:24.258Z,25.70
2019-03-21T03:08:52.224Z,30.72
2019-03-21T03:11:20.665Z,18.85
2019-03-21T03:13:49.631Z,20.23
2019-03-21T03:16:17.763Z,22.15
2019-03-21T03:18:45.728Z,24.20
2019-03-21T03:21:13.704Z,30.08
2019-03-21T03:23:41.680Z,31.23
2019-03-21T03:26:09.953Z,26.60
2019-03-21T03:28:39.559Z,31.90
2019-03-21T03:31:07.544Z,34.58
2019-03-21T03:33:35.519Z,28.27
2019-03-21T03:36:03.501Z,26.60
2019-03-21T03:38:31.474Z,21.40
2019-03-21T03:41:03.568Z,22.65
2019-03-21T03:43:31.581Z,31.37
2019-03-21T03:45:59.571Z,30.20
2019-03-21T03:48:27.817Z,22.58
2019-03-21T03:50:55.791Z,20.80
2019-03-21T03:53:23.799Z,22.45
2019-03-21T03:55:51.805Z,24.23
2019-03-21T03:58:21.151Z,23.52
2019-03-21T04:00:49.129Z,27.52
2019-03-21T04:03:17.116Z,25.27
2019-03-21T04:05:45.092Z,33.45
2019-03-21T04:08:13.055Z,27.82
2019-03-21T04:10:45.591Z,25.50
2019-03-21T04:13:13.986Z,23.73
2019-03-21T04:15:52.416Z,30.97
2019-03-21T04:18:11.725Z,25.97
2019-03-21T04:20:46.867Z,28.80
2019-03-21T04:23:16.012Z,37.65
2019-03-21T04:25:48.444Z,24.45
2019-03-21T04:28:16.421Z,27.25
2019-03-21T04:30:45.463Z,30.90
2019-03-21T04:33:13.443Z,41.15
2019-03-21T04:35:41.490Z,33.18
2019-03-21T04:38:09.449Z,28.60
2019-03-21T04:40:37.791Z,31.55
2019-03-21T04:43:05.767Z,29.98
2019-03-21T04:45:33.731Z,36.68
2019-03-21T04:48:01.710Z,40.90
2019-03-21T04:50:31.304Z,34.95
2019-03-21T04:52:59.289Z,27.52
2019-03-21T04:55:27.255Z,33.18
2019-03-21T04:57:55.231Z,41.08
2019-03-21T05:00:36.673Z,31.48
2019-03-21T05:03:05.920Z,36.90
2019-03-21T05:05:33.884Z,39.88
2019-03-21T05:08:01.864Z,36.13
2019-03-21T05:10:29.839Z,28.65
2019-03-21T05:12:57.805Z,29.32
2019-03-21T05:15:27.427Z,34.88
2019-03-21T05:17:56.993Z,45.70
2019-03-21T05:20:28.911Z,43.35
2019-03-21T05:22:57.563Z,35.25
2019-03-21T05:25:25.918Z,34.90
2019-03-21T05:27:53.887Z,41.30
2019-03-21T05:30:23.512Z,31.20
2019-03-21T05:32:51.475Z,32.93
2019-03-21T05:35:19.439Z,36.28
2019-03-21T05:37:47.415Z,33.70
2019-03-21T05:40:19.427Z,40.40
2019-03-21T05:42:49.043Z,32.67
2019-03-21T05:45:20.935Z,38.40
2019-03-21T05:47:48.907Z,32.78
2019-03-21T05:50:17.251Z,36.30
2019-03-21T05:52:45.295Z,30.90
2019-03-21T05:55:13.323Z,39.18
2019-03-21T05:57:42.207Z,32.80
2019-03-21T06:00:11.810Z,24.77
2019-03-21T06:02:39.779Z,27.77
2019-03-21T06:05:07.751Z,30.08
2019-03-21T06:07:37.125Z,24.35
2019-03-21T06:10:06.744Z,25.72
2019-03-21T06:12:36.359Z,25.50
2019-03-21T06:15:05.967Z,21.95
2019-03-21T06:17:33.963Z,30.05
2019-03-21T06:20:04.194Z,23.22
2019-03-21T06:22:33.972Z,20.40
2019-03-21T06:25:03.583Z,19.70
2019-03-21T06:27:31.551Z,19.30
2019-03-21T06:29:59.588Z,19.65
2019-03-21T06:32:27.583Z,14.85
2019-03-21T06:34:56.008Z,20.50
2019-03-21T06:37:24.406Z,17.65
2019-03-21T06:39:52.413Z,20.57
2019-03-21T06:42:20.371Z,19.65
2019-03-21T06:44:48.347Z,20.20
2019-03-21T06:47:16.323Z,21.48
2019-03-21T06:49:46.489Z,20.23
2019-03-21T06:52:13.988Z,18.23
2019-03-21T06:54:41.968Z,15.78
2019-03-21T06:57:09.929Z,16.40
2019-03-21T06:59:37.903Z,14.73
2019-03-21T07:02:05.879Z,14.73
2019-03-21T07:04:33.863Z,14.18
2019-03-21T07:07:07.998Z,11.63
2019-03-21T07:09:31.524Z,13.60
2019-03-21T07:11:59.503Z,12.53
2019-03-21T07:14:27.472Z,11.75
2019-03-21T07:17:00.263Z,11.57
2019-03-21T07:19:25.143Z,11.37
2019-03-21T07:21:53.132Z,16.07
2019-03-21T07:24:21.104Z,13.93
2019-03-21T07:26:49.072Z,11.40
2019-03-21T07:29:17.048Z,12.40
2019-03-21T07:31:45.022Z,13.25
2019-03-21T07:34:12.987Z,10.10
2019-03-21T07:36:40.959Z,13.65
2019-03-21T07:39:08.946Z,10.80
2019-03-21T07:41:36.910Z,12.28
2019-03-21T07:44:05.188Z,15.68
2019-03-21T07:46:33.156Z,12.93
2019-03-21T07:49:01.123Z,10.10
2019-03-21T07:51:29.099Z,13.70
2019-03-21T07:53:57.063Z,11.25
2019-03-21T07:56:25.178Z,11.57
2019-03-21T07:58:53.199Z,15.53
2019-03-21T08:01:21.180Z,15.35
2019-03-21T08:03:49.161Z,10.90
2019-03-21T08:06:17.140Z,11.85
2019-03-21T08:08:45.107Z,11.10
2019-03-21T08:11:13.122Z,14.07
2019-03-21T08:13:41.087Z,13.18
2019-03-21T08:16:09.053Z,10.63
2019-03-21T08:18:37.054Z,13.20
2019-03-21T08:21:05.011Z,13.90
2019-03-21T08:23:32.986Z,11.83
2019-03-21T08:26:00.967Z,10.85
2019-03-21T08:28:28.927Z,14.63
2019-03-21T08:31:04.414Z,12.82
2019-03-21T08:33:32.380Z,9.23
2019-03-21T08:36:00.347Z,12.98
2019-03-21T08:38:28.312Z,10.85
2019-03-21T08:40:56.283Z,15.13
2019-03-21T08:43:24.252Z,13.28
2019-03-21T08:45:52.224Z,10.93
2019-03-21T08:48:20.208Z,11.45
2019-03-21T08:50:48.167Z,12.82
2019-03-21T08:53:16.136Z,11.60
2019-03-21T08:55:44.116Z,13.05
2019-03-21T08:58:12.092Z,11.03
2019-03-21T09:00:40.062Z,10.98
2019-03-21T09:03:08.030Z,9.65
2019-03-21T09:05:35.999Z,9.50
2019-03-21T09:08:03.985Z,13.18
2019-03-21T09:10:34.357Z,11.33
2019-03-21T09:13:01.642Z,12.00
2019-03-21T09:15:29.608Z,11.90
2019-03-21T09:17:57.586Z,11.18
2019-03-21T09:20:25.548Z,12.13
2019-03-21T09:22:53.519Z,10.23
2019-03-21T09:25:21.483Z,7.65
2019-03-21T09:27:49.467Z,8.95
2019-03-21T09:30:17.430Z,10.82
2019-03-21T09:32:45.392Z,8.03
2019-03-21T09:35:13.364Z,8.23
2019-03-21T09:37:41.336Z,10.38
2019-03-21T09:40:12.703Z,9.80
2019-03-21T09:42:40.668Z,11.05
2019-03-21T09:45:08.643Z,6.67
2019-03-21T09:47:36.605Z,8.83
2019-03-21T09:50:05.043Z,8.60
2019-03-21T09:52:33.003Z,8.38
2019-03-21T09:55:01.255Z,7.17
2019-03-21T09:57:29.200Z,11.15
2019-03-21T09:59:57.158Z,7.83
2019-03-21T10:02:25.296Z,9.25
2019-03-21T10:04:53.223Z,6.67
2019-03-21T10:07:21.200Z,6.20
2019-03-21T10:09:49.269Z,6.40
2019-03-21T10:12:17.245Z,7.55
2019-03-21T10:14:45.208Z,7.55
2019-03-21T10:17:13.175Z,10.13
2019-03-21T10:19:41.156Z,8.25
2019-03-21T10:22:09.191Z,8.30
2019-03-21T10:24:37.232Z,7.80
2019-03-21T10:27:05.396Z,10.00
2019-03-21T10:29:33.420Z,9.30
2019-03-21T10:32:01.415Z,10.28
2019-03-21T10:34:29.396Z,11.30
2019-03-21T10:36:58.263Z,8.43
2019-03-21T10:39:26.242Z,12.18
2019-03-21T10:41:54.213Z,12.45
2019-03-21T10:44:22.191Z,12.05
2019-03-21T10:46:50.167Z,11.55
2019-03-21T10:49:18.153Z,8.70
2019-03-21T10:51:54.532Z,15.40
2019-03-21T10:54:16.380Z,14.07
2019-03-21T10:56:44.354Z,12.18
2019-03-21T10:59:12.380Z,11.57
2019-03-21T11:01:40.374Z,10.80
2019-03-21T11:04:08.403Z,11.53
2019-03-21T11:06:36.383Z,13.18
2019-03-21T11:09:06.030Z,12.85
2019-03-21T11:11:33.994Z,7.85
2019-03-21T11:14:02.102Z,10.75
2019-03-21T11:16:31.539Z,8.90
2019-03-21T11:18:59.714Z,9.68
2019-03-21T11:21:27.791Z,11.22
2019-03-21T11:23:55.847Z,7.10
2019-03-21T11:26:23.820Z,12.00
2019-03-21T11:28:51.838Z,8.95
2019-03-21T11:31:19.807Z,12.63
2019-03-21T11:33:47.818Z,11.63
2019-03-21T11:36:15.853Z,11.50
2019-03-21T11:38:43.900Z,11.25
2019-03-21T11:41:11.875Z,13.98
2019-03-21T11:43:39.847Z,8.28
2019-03-21T11:46:07.864Z,11.63
2019-03-21T11:48:35.849Z,8.98
2019-03-21T11:51:03.981Z,11.08
2019-03-21T11:53:32.029Z,8.38
2019-03-21T11:56:00.010Z,8.90
2019-03-21T11:58:27.983Z,7.83
2019-03-21T12:00:55.963Z,9.80
2019-03-21T12:03:24.433Z,13.08
2019-03-21T12:05:52.495Z,6.87
2019-03-21T12:08:20.592Z,7.80
2019-03-21T12:10:48.696Z,9.53
2019-03-21T12:13:16.699Z,6.08
2019-03-21T12:15:44.665Z,7.20
2019-03-21T12:18:12.654Z,8.38
2019-03-21T12:20:40.616Z,6.65
2019-03-21T12:23:08.581Z,8.68
2019-03-21T12:25:36.578Z,8.63
2019-03-21T12:28:04.554Z,6.87
2019-03-21T12:30:39.250Z,7.22
2019-03-21T12:33:07.233Z,8.18
2019-03-21T12:35:35.210Z,7.97
2019-03-21T12:38:03.451Z,7.95
2019-03-21T12:40:31.423Z,10.63
2019-03-21T12:42:59.402Z,10.20
2019-03-21T12:45:27.403Z,8.68
2019-03-21T12:47:55.545Z,8.08
2019-03-21T12:50:23.544Z,9.65
2019-03-21T12:52:51.547Z,7.95
2019-03-21T12:55:19.518Z,9.63
2019-03-21T12:57:47.502Z,6.67
2019-03-21T13:00:15.519Z,10.40
2019-03-21T13:02:43.487Z,9.98
2019-03-21T13:05:22.425Z,7.85
2019-03-21T13:07:50.379Z,7.75
2019-03-21T13:10:18.388Z,9.25
2019-03-21T13:12:46.323Z,7.22
2019-03-21T13:15:14.299Z,6.62
2019-03-21T13:17:42.260Z,9.10
2019-03-21T13:20:10.265Z,10.82
2019-03-21T13:22:38.234Z,9.75
2019-03-21T13:25:06.201Z,10.93
2019-03-21T13:27:34.193Z,8.78
2019-03-21T13:30:03.568Z,10.48
2019-03-21T13:32:31.855Z,7.83
2019-03-21T13:35:00.027Z,8.85
2019-03-21T13:37:28.107Z,7.75
2019-03-21T13:39:56.160Z,7.40
2019-03-21T13:42:24.224Z,7.37
2019-03-21T13:44:52.194Z,9.90
2019-03-21T13:47:20.250Z,8.05
2019-03-21T13:49:48.221Z,10.38
2019-03-21T13:52:16.216Z,7.87
2019-03-21T13:54:44.210Z,12.37
2019-03-21T13:57:12.216Z,8.43
2019-03-21T13:59:40.202Z,7.97
2019-03-21T14:02:08.187Z,8.05
2019-03-21T14:04:36.143Z,8.20
2019-03-21T14:07:04.116Z,9.10
2019-03-21T14:09:32.108Z,11.57
2019-03-21T14:12:00.105Z,7.37
2019-03-21T14:14:28.093Z,6.12
2019-03-21T14:16:56.044Z,5.62
2019-03-21T14:19:24.019Z,8.23
2019-03-21T14:21:52.051Z,5.33
2019-03-21T14:24:20.020Z,8.68
2019-03-21T14:26:47.979Z,8.98
2019-03-21T14:29:15.971Z,8.65
2019-03-21T14:31:46.596Z,9.95
2019-03-21T14:34:14.578Z,12.18
2019-03-21T14:36:42.610Z,14.18
2019-03-21T14:39:10.651Z,9.43
2019-03-21T14:41:38.624Z,7.85
2019-03-21T14:44:07.227Z,7.40
2019-03-21T14:46:35.366Z,6.95
2019-03-21T14:49:03.331Z,9.28
2019-03-21T14:51:31.369Z,6.12
2019-03-21T14:53:59.358Z,6.60
2019-03-21T14:56:27.420Z,6.25
2019-03-21T14:58:55.392Z,5.15
2019-03-21T15:01:23.387Z,8.35
2019-03-21T15:03:51.328Z,7.25
2019-03-21T15:06:19.287Z,6.85
2019-03-21T15:08:47.272Z,8.50
2019-03-21T15:11:17.317Z,5.65
2019-03-21T15:13:45.064Z,6.15
2019-03-21T15:16:13.035Z,6.22
2019-03-21T15:18:41.101Z,7.80
2019-03-21T15:21:09.165Z,6.75
2019-03-21T15:23:40.905Z,8.10
2019-03-21T15:26:06.980Z,7.85
2019-03-21T15:28:34.952Z,6.97
2019-03-21T15:31:02.911Z,8.63
2019-03-21T15:33:30.899Z,11.50
2019-03-21T15:35:58.967Z,6.40
2019-03-21T15:38:27.843Z,6.30
2019-03-21T15:40:56.031Z,10.15
2019-03-21T15:43:23.992Z,13.48
2019-03-21T15:45:51.980Z,10.30
2019-03-21T15:48:21.047Z,7.15
2019-03-21T15:50:49.243Z,10.13
2019-03-21T15:53:17.216Z,7.70
2019-03-21T15:55:45.192Z,10.08
2019-03-21T15:58:13.156Z,6.45
2019-03-21T16:00:44.139Z,7.72
2019-03-21T16:03:12.170Z,6.40
2019-03-21T16:05:40.139Z,7.85
2019-03-21T16:08:09.170Z,7.47
2019-03-21T16:10:37.412Z,6.63
2019-03-21T16:13:05.384Z,7.25
2019-03-21T16:15:33.372Z,6.22
2019-03-21T16:18:01.347Z,8.28
2019-03-21T16:20:29.323Z,8.18
2019-03-21T16:22:57.305Z,10.53
2019-03-21T16:25:25.277Z,10.68
2019-03-21T16:27:53.256Z,8.15
2019-03-21T16:30:22.492Z,9.80
2019-03-21T16:32:50.460Z,6.85
2019-03-21T16:35:18.468Z,8.48
2019-03-21T16:37:46.454Z,7.25
2019-03-21T16:40:14.884Z,6.42
2019-03-21T16:42:42.924Z,9.40
2019-03-21T16:45:11.520Z,6.97
2019-03-21T16:47:39.487Z,8.03
2019-03-21T16:50:09.083Z,6.72
2019-03-21T16:52:37.056Z,7.33
2019-03-21T16:55:05.645Z,5.45
2019-03-21T16:57:33.686Z,10.70
2019-03-21T17:00:01.676Z,7.95
2019-03-21T17:02:29.648Z,7.28
2019-03-21T17:04:57.616Z,7.08
2019-03-21T17:07:25.602Z,8.35
2019-03-21T17:09:53.608Z,7.10
2019-03-21T17:12:21.578Z,11.80
2019-03-21T17:14:49.531Z,6.03
2019-03-21T17:17:17.512Z,7.37
2019-03-21T17:19:45.439Z,7.75
2019-03-21T17:22:13.469Z,9.98
2019-03-21T17:24:41.466Z,9.13
2019-03-21T17:27:09.459Z,5.40
2019-03-21T17:29:37.428Z,7.90
2019-03-21T17:32:05.399Z,8.40
2019-03-21T17:34:33.387Z,4.03
2019-03-21T17:37:01.371Z,4.75
2019-03-21T17:39:29.337Z,5.42
2019-03-21T17:41:58.949Z,8.18
2019-03-21T17:44:26.988Z,7.63
2019-03-21T17:46:54.969Z,7.45
2019-03-21T17:49:22.940Z,7.53
2019-03-21T17:51:50.909Z,11.43
2019-03-21T17:54:18.895Z,8.40
2019-03-21T17:56:46.859Z,6.85
2019-03-21T17:59:14.871Z,11.28
2019-03-21T18:01:42.874Z,8.08
2019-03-21T18:04:10.835Z,7.53
2019-03-21T18:06:38.808Z,8.15
2019-03-21T18:09:07.167Z,7.85
2019-03-21T18:11:35.319Z,6.00
2019-03-21T18:14:03.296Z,8.13
2019-03-21T18:16:31.263Z,9.00
2019-03-21T18:18:59.262Z,9.50
2019-03-21T18:21:27.256Z,15.05
2019-03-21T18:23:55.203Z,5.97
2019-03-21T18:26:23.232Z,7.95
2019-03-21T18:28:51.211Z,6.45
2019-03-21T18:31:19.219Z,4.15
2019-03-21T18:33:47.219Z,6.72
2019-03-21T18:36:15.155Z,7.58
2019-03-21T18:38:43.128Z,4.55
2019-03-21T18:41:11.126Z,8.78
2019-03-21T18:43:39.092Z,4.17
2019-03-21T18:46:07.116Z,6.17
2019-03-21T18:48:35.069Z,5.15
2019-03-21T18:51:03.098Z,7.00
2019-03-21T18:53:31.073Z,5.05
2019-03-21T18:55:59.023Z,5.10
2019-03-21T18:58:27.018Z,7.85
2019-03-21T19:00:55.009Z,7.47
2019-03-21T19:03:22.977Z,8.25
2019-03-21T19:05:50.985Z,8.68
2019-03-21T19:08:18.966Z,21.77
2019-03-21T19:10:46.961Z,16.42
2019-03-21T19:13:14.995Z,24.12
2019-03-21T19:15:42.967Z,17.15
2019-03-21T19:18:11.036Z,23.15
2019-03-21T19:20:39.036Z,20.08
2019-03-21T19:23:07.029Z,12.53
2019-03-21T19:25:35.001Z,20.57
2019-03-21T19:28:03.014Z,18.48
2019-03-21T19:30:31.002Z,19.92
2019-03-21T19:32:58.967Z,21.35
2019-03-21T19:35:26.960Z,16.75
2019-03-21T19:37:56.344Z,20.37
2019-03-21T19:40:24.316Z,20.32
2019-03-21T19:42:52.285Z,14.25
2019-03-21T19:45:20.268Z,16.52
2019-03-21T19:47:48.298Z,19.27
2019-03-21T19:50:19.504Z,17.67
2019-03-21T19:52:47.486Z,15.05
2019-03-21T19:55:30.379Z,10.98
2019-03-21T19:57:48.285Z,11.93
2019-03-21T20:00:20.896Z,13.15
2019-03-21T20:02:48.884Z,16.02
2019-03-21T20:05:16.870Z,12.28
2019-03-21T20:07:44.968Z,12.58
2019-03-21T20:10:14.572Z,13.88
2019-03-21T20:12:42.531Z,17.82
2019-03-21T20:15:11.365Z,8.05
2019-03-21T20:17:39.351Z,12.37
2019-03-21T20:20:08.778Z,8.25
2019-03-21T20:22:37.140Z,8.38
2019-03-21T20:25:05.583Z,10.80
2019-03-21T20:27:33.543Z,12.73
2019-03-21T20:30:01.531Z,6.05
2019-03-21T20:32:29.510Z,8.40
2019-03-21T20:34:57.486Z,5.97
2019-03-21T20:37:25.474Z,6.70
2019-03-21T20:39:53.585Z,6.42
2019-03-21T20:42:21.748Z,8.05
2019-03-21T20:44:49.729Z,7.92
2019-03-21T20:50:05.535Z,7.33
2019-03-21T20:52:33.548Z,6.67
2019-03-21T20:55:01.645Z,8.18
2019-03-21T20:57:29.621Z,11.12
2019-03-21T20:59:57.590Z,10.25
2019-03-21T21:02:25.578Z,10.38
2019-03-21T21:04:53.565Z,8.53
2019-03-21T21:07:21.528Z,7.28
2019-03-21T21:09:49.587Z,9.03
2019-03-21T21:12:17.562Z,9.60
2019-03-21T21:14:45.559Z,8.85
2019-03-21T21:17:13.545Z,7.70
2019-03-21T21:19:41.495Z,12.05
2019-03-21T21:22:09.492Z,10.08
2019-03-21T21:24:37.461Z,8.70
2019-03-21T21:27:05.441Z,9.50
2019-03-21T21:29:33.403Z,9.80
2019-03-21T21:32:01.483Z,8.15
2019-03-21T21:34:29.497Z,12.93
2019-03-21T21:36:57.460Z,7.60
2019-03-21T21:39:25.469Z,8.98
2019-03-21T21:41:53.496Z,14.87
2019-03-21T21:44:21.472Z,9.08
2019-03-21T21:46:49.481Z,10.38
2019-03-21T21:49:17.428Z,11.48
2019-03-21T21:51:45.404Z,13.60
2019-03-21T21:54:13.383Z,14.30
2019-03-21T21:56:41.367Z,12.80
2019-03-21T21:59:09.370Z,11.22
2019-03-21T22:01:37.339Z,14.60
2019-03-21T22:04:05.328Z,12.47
2019-03-21T22:06:33.303Z,14.07
2019-03-21T22:09:01.259Z,11.60
2019-03-21T22:11:29.252Z,14.05
2019-03-21T22:13:57.224Z,13.32
2019-03-21T22:16:25.195Z,14.18
2019-03-21T22:18:53.171Z,12.93
2019-03-21T22:21:21.141Z,15.43
2019-03-21T22:23:49.115Z,10.50
2019-03-21T22:26:28.892Z,11.73
2019-03-21T22:28:46.806Z,12.55
2019-03-21T22:31:14.783Z,14.40
2019-03-21T22:33:42.792Z,16.95
2019-03-21T22:36:10.817Z,12.18
2019-03-21T22:38:38.791Z,12.00
2019-03-21T22:41:06.759Z,11.50
2019-03-21T22:43:34.745Z,10.78
2019-03-21T22:46:02.793Z,14.47
2019-03-21T22:48:30.813Z,11.45
2019-03-21T22:50:58.790Z,13.58
2019-03-21T22:53:26.755Z,13.22
2019-03-21T22:55:54.810Z,11.05
2019-03-21T22:58:31.402Z,14.38
2019-03-21T23:00:52.854Z,15.72
2019-03-21T23:03:20.828Z,12.35
2019-03-21T23:05:48.793Z,19.42
2019-03-21T23:08:16.780Z,13.32
2019-03-21T23:10:45.204Z,13.58
2019-03-21T23:13:13.307Z,21.40
2019-03-21T23:15:41.355Z,16.45
2019-03-21T23:18:09.392Z,19.23
2019-03-21T23:20:37.400Z,17.65
2019-03-21T23:23:05.499Z,14.87
2019-03-21T23:25:33.523Z,18.05
2019-03-21T23:28:01.484Z,16.30
2019-03-21T23:30:29.459Z,13.93
2019-03-21T23:32:57.525Z,18.62
2019-03-21T23:35:25.519Z,16.90
2019-03-21T23:37:53.536Z,17.92
2019-03-21T23:40:21.540Z,15.20
2019-03-21T23:42:49.516Z,19.07
2019-03-21T23:45:19.879Z,15.80
2019-03-21T23:47:47.186Z,21.62
2019-03-21T23:50:15.569Z,14.98
2019-03-21T23:52:43.533Z,13.05
2019-03-21T23:55:11.597Z,16.45
2019-03-21T23:57:39.565Z,17.05
